sensor_id;sensor_type;location;lat;lon;timestamp;pressure;altitude;pressure_sealevel;temperature;humidity
37206;BME280;23099;42.636;23.198;2023-07-30T00:00:51;91928.59;;;17.99;75.13
37206;BME280;23099;42.636;23.198;2023-07-30T00:03:18;91926.38;;;17.91;75.13
37206;BME280;23099;42.636;23.198;2023-07-30T00:05:51;91937.19;;;17.91;75.50
37206;BME280;23099;42.636;23.198;2023-07-30T00:08:18;91918.78;;;17.82;75.55
37206;BME280;23099;42.636;23.198;2023-07-30T00:10:46;91925.47;;;17.74;75.46
37206;BME280;23099;42.636;23.198;2023-07-30T00:13:13;91926.34;;;17.64;76.60
37206;BME280;23099;42.636;23.198;2023-07-30T00:15:40;91932.44;;;17.72;75.88
37206;BME280;23099;42.636;23.198;2023-07-30T00:18:06;91923.56;;;17.71;76.30
37206;BME280;23099;42.636;23.198;2023-07-30T00:20:34;91925.94;;;17.65;76.25
37206;BME280;23099;42.636;23.198;2023-07-30T00:23:01;91928.84;;;17.48;76.05
37206;BME280;23099;42.636;23.198;2023-07-30T00:25:27;91932.03;;;17.39;76.76
37206;BME280;23099;42.636;23.198;2023-07-30T00:27:55;91923.19;;;17.35;77.29
37206;BME280;23099;42.636;23.198;2023-07-30T00:30:22;91922.88;;;17.29;78.01
37206;BME280;23099;42.636;23.198;2023-07-30T00:32:49;91924.16;;;17.18;78.45
37206;BME280;23099;42.636;23.198;2023-07-30T00:35:16;91915.03;;;17.05;79.28
37206;BME280;23099;42.636;23.198;2023-07-30T00:37:43;91917.03;;;17.01;80.48
37206;BME280;23099;42.636;23.198;2023-07-30T00:40:10;91904.84;;;16.85;80.87
37206;BME280;23099;42.636;23.198;2023-07-30T00:42:37;91913.66;;;16.89;81.26
37206;BME280;23099;42.636;23.198;2023-07-30T00:45:06;91914.03;;;16.91;80.98
37206;BME280;23099;42.636;23.198;2023-07-30T00:47:33;91910.16;;;16.92;81.29
37206;BME280;23099;42.636;23.198;2023-07-30T00:50:00;91919.06;;;16.89;81.17
37206;BME280;23099;42.636;23.198;2023-07-30T00:52:28;91920.31;;;16.81;81.75
37206;BME280;23099;42.636;23.198;2023-07-30T00:54:57;91919.16;;;16.79;81.24
37206;BME280;23099;42.636;23.198;2023-07-30T00:57:23;91919.34;;;16.57;82.28
37206;BME280;23099;42.636;23.198;2023-07-30T00:59:51;91911.69;;;16.49;82.93
37206;BME280;23099;42.636;23.198;2023-07-30T01:02:21;91919.75;;;16.56;83.17
37206;BME280;23099;42.636;23.198;2023-07-30T01:04:48;91913.19;;;16.57;83.06
37206;BME280;23099;42.636;23.198;2023-07-30T01:07:14;91919.66;;;16.67;81.89
37206;BME280;23099;42.636;23.198;2023-07-30T01:09:41;91916.56;;;16.68;81.88
37206;BME280;23099;42.636;23.198;2023-07-30T01:12:08;91923.47;;;16.73;82.23
37206;BME280;23099;42.636;23.198;2023-07-30T01:14:35;91924.19;;;16.77;82.07
37206;BME280;23099;42.636;23.198;2023-07-30T01:17:04;91926.50;;;16.78;81.44
37206;BME280;23099;42.636;23.198;2023-07-30T01:19:32;91921.06;;;16.82;81.21
37206;BME280;23099;42.636;23.198;2023-07-30T01:22:00;91916.81;;;16.84;81.56
37206;BME280;23099;42.636;23.198;2023-07-30T01:24:27;91916.81;;;16.84;81.81
37206;BME280;23099;42.636;23.198;2023-07-30T01:26:56;91911.03;;;16.82;81.18
37206;BME280;23099;42.636;23.198;2023-07-30T01:29:29;91916.16;;;16.73;80.96
37206;BME280;23099;42.636;23.198;2023-07-30T01:32:04;91910.13;;;16.55;81.37
37206;BME280;23099;42.636;23.198;2023-07-30T01:34:34;91912.91;;;16.44;81.74
37206;BME280;23099;42.636;23.198;2023-07-30T01:37:04;91916.84;;;16.33;82.22
37206;BME280;23099;42.636;23.198;2023-07-30T01:39:33;91922.22;;;16.33;83.28
37206;BME280;23099;42.636;23.198;2023-07-30T01:42:00;91919.97;;;16.27;83.65
37206;BME280;23099;42.636;23.198;2023-07-30T01:44:26;91923.81;;;16.30;83.53
37206;BME280;23099;42.636;23.198;2023-07-30T01:46:53;91919.59;;;16.25;83.49
37206;BME280;23099;42.636;23.198;2023-07-30T01:49:20;91916.94;;;16.22;83.05
37206;BME280;23099;42.636;23.198;2023-07-30T01:51:46;91918.16;;;16.14;83.54
37206;BME280;23099;42.636;23.198;2023-07-30T01:54:14;91920.81;;;16.17;83.55
37206;BME280;23099;42.636;23.198;2023-07-30T01:56:41;91921.19;;;16.19;84.39
37206;BME280;23099;42.636;23.198;2023-07-30T01:59:08;91920.41;;;16.19;83.93
37206;BME280;23099;42.636;23.198;2023-07-30T02:01:34;91917.34;;;16.17;84.15
37206;BME280;23099;42.636;23.198;2023-07-30T02:04:01;91913.47;;;16.21;83.95
37206;BME280;23099;42.636;23.198;2023-07-30T02:06:28;91918.16;;;16.14;84.26
37206;BME280;23099;42.636;23.198;2023-07-30T02:08:54;91915.00;;;16.22;83.93
37206;BME280;23099;42.636;23.198;2023-07-30T02:11:22;91930.81;;;16.20;84.44
37206;BME280;23099;42.636;23.198;2023-07-30T02:13:49;91929.25;;;16.19;84.23
37206;BME280;23099;42.636;23.198;2023-07-30T02:16:16;91921.94;;;16.20;83.97
37206;BME280;23099;42.636;23.198;2023-07-30T02:18:42;91927.31;;;16.23;84.09
37206;BME280;23099;42.636;23.198;2023-07-30T02:21:09;91928.47;;;16.26;83.39
37206;BME280;23099;42.636;23.198;2023-07-30T02:23:36;91923.88;;;16.16;83.52
37206;BME280;23099;42.636;23.198;2023-07-30T02:26:02;91922.41;;;16.11;83.48
37206;BME280;23099;42.636;23.198;2023-07-30T02:28:30;91924.34;;;16.11;84.08
37206;BME280;23099;42.636;23.198;2023-07-30T02:30:57;91929.34;;;16.12;83.74
37206;BME280;23099;42.636;23.198;2023-07-30T02:33:24;91927.41;;;16.09;83.67
37206;BME280;23099;42.636;23.198;2023-07-30T02:35:50;91933.28;;;15.97;83.75
37206;BME280;23099;42.636;23.198;2023-07-30T02:38:17;91934.81;;;15.98;84.02
37206;BME280;23099;42.636;23.198;2023-07-30T02:40:44;91939.84;;;15.96;84.02
37206;BME280;23099;42.636;23.198;2023-07-30T02:43:10;91934.09;;;15.87;84.81
37206;BME280;23099;42.636;23.198;2023-07-30T02:45:39;91938.75;;;15.86;85.04
37206;BME280;23099;42.636;23.198;2023-07-30T02:48:05;91933.38;;;15.83;85.18
37206;BME280;23099;42.636;23.198;2023-07-30T02:50:32;91937.94;;;15.89;85.39
37206;BME280;23099;42.636;23.198;2023-07-30T02:52:59;91936.00;;;15.94;85.73
37206;BME280;23099;42.636;23.198;2023-07-30T02:55:25;91933.66;;;15.99;85.22
37206;BME280;23099;42.636;23.198;2023-07-30T02:57:52;91937.53;;;15.95;84.95
37206;BME280;23099;42.636;23.198;2023-07-30T03:00:19;91935.72;;;15.74;85.51
37206;BME280;23099;42.636;23.198;2023-07-30T03:02:47;91941.53;;;15.72;85.73
37206;BME280;23099;42.636;23.198;2023-07-30T03:05:13;91941.16;;;15.70;85.76
37206;BME280;23099;42.636;23.198;2023-07-30T03:07:40;91938.06;;;15.72;86.12
37206;BME280;23099;42.636;23.198;2023-07-30T03:10:07;91937.63;;;15.73;85.60
37206;BME280;23099;42.636;23.198;2023-07-30T03:12:34;91941.47;;;15.79;85.26
37206;BME280;23099;42.636;23.198;2023-07-30T03:15:00;91942.59;;;15.85;85.03
37206;BME280;23099;42.636;23.198;2023-07-30T03:17:27;91938.31;;;15.88;85.25
37206;BME280;23099;42.636;23.198;2023-07-30T03:19:55;91926.75;;;15.91;84.82
37206;BME280;23099;42.636;23.198;2023-07-30T03:22:22;91936.00;;;15.94;84.01
37206;BME280;23099;42.636;23.198;2023-07-30T03:24:49;91937.94;;;15.89;83.89
37206;BME280;23099;42.636;23.198;2023-07-30T03:27:15;91929.47;;;15.91;84.65
37206;BME280;23099;42.636;23.198;2023-07-30T03:29:42;91936.75;;;15.94;84.37
37206;BME280;23099;42.636;23.198;2023-07-30T03:32:09;91940.66;;;15.86;84.13
37206;BME280;23099;42.636;23.198;2023-07-30T03:34:35;91932.59;;;15.82;84.16
37206;BME280;23099;42.636;23.198;2023-07-30T03:37:04;91942.63;;;15.82;84.47
37206;BME280;23099;42.636;23.198;2023-07-30T03:39:30;91931.84;;;15.75;85.03
37206;BME280;23099;42.636;23.198;2023-07-30T03:41:57;91931.53;;;15.69;85.85
37206;BME280;23099;42.636;23.198;2023-07-30T03:44:23;91936.88;;;15.73;86.12
37206;BME280;23099;42.636;23.198;2023-07-30T03:46:50;91935.38;;;15.72;86.62
37206;BME280;23099;42.636;23.198;2023-07-30T03:49:17;91937.69;;;15.66;86.05
37206;BME280;23099;42.636;23.198;2023-07-30T03:51:43;91930.81;;;15.47;86.49
37206;BME280;23099;42.636;23.198;2023-07-30T03:54:11;91932.72;;;15.54;86.77
37206;BME280;23099;42.636;23.198;2023-07-30T03:56:38;91942.75;;;15.57;87.15
37206;BME280;23099;42.636;23.198;2023-07-30T03:59:05;91943.09;;;15.63;86.74
37206;BME280;23099;42.636;23.198;2023-07-30T04:01:31;91943.84;;;15.63;86.59
37206;BME280;23099;42.636;23.198;2023-07-30T04:03:59;91940.38;;;15.70;86.66
37206;BME280;23099;42.636;23.198;2023-07-30T04:06:25;91937.63;;;15.73;86.66
37206;BME280;23099;42.636;23.198;2023-07-30T04:08:52;91943.78;;;15.81;86.39
37206;BME280;23099;42.636;23.198;2023-07-30T04:11:20;91944.13;;;15.86;86.65
37206;BME280;23099;42.636;23.198;2023-07-30T04:13:47;91943.31;;;15.93;86.51
37206;BME280;23099;42.636;23.198;2023-07-30T04:16:13;91945.59;;;15.98;85.79
37206;BME280;23099;42.636;23.198;2023-07-30T04:18:40;91940.53;;;16.04;85.93
37206;BME280;23099;42.636;23.198;2023-07-30T04:21:07;91950.94;;;16.05;85.41
37206;BME280;23099;42.636;23.198;2023-07-30T04:23:33;91946.00;;;15.97;86.05
37206;BME280;23099;42.636;23.198;2023-07-30T04:26:00;91946.31;;;16.02;86.06
37206;BME280;23099;42.636;23.198;2023-07-30T04:28:28;91941.69;;;16.03;86.33
37206;BME280;23099;42.636;23.198;2023-07-30T04:30:55;91954.03;;;16.04;86.39
37206;BME280;23099;42.636;23.198;2023-07-30T04:33:22;91952.84;;;16.08;86.52
37206;BME280;23099;42.636;23.198;2023-07-30T04:35:48;91949.38;;;16.11;86.28
37206;BME280;23099;42.636;23.198;2023-07-30T04:38:15;91955.53;;;16.12;86.13
37206;BME280;23099;42.636;23.198;2023-07-30T04:40:42;91955.91;;;16.10;86.13
37206;BME280;23099;42.636;23.198;2023-07-30T04:43:08;91964.44;;;16.02;86.92
37206;BME280;23099;42.636;23.198;2023-07-30T04:45:36;91961.69;;;16.12;87.64
37206;BME280;23099;42.636;23.198;2023-07-30T04:48:03;91960.91;;;16.12;86.99
37206;BME280;23099;42.636;23.198;2023-07-30T04:50:30;91964.69;;;16.25;87.17
37206;BME280;23099;42.636;23.198;2023-07-30T04:52:57;91959.22;;;16.32;86.68
37206;BME280;23099;42.636;23.198;2023-07-30T04:55:24;91956.88;;;16.38;86.44
37206;BME280;23099;42.636;23.198;2023-07-30T04:57:50;91952.63;;;16.40;86.31
37206;BME280;23099;42.636;23.198;2023-07-30T05:00:17;91970.66;;;16.47;86.49
37206;BME280;23099;42.636;23.198;2023-07-30T05:02:45;91965.97;;;16.58;86.19
37206;BME280;23099;42.636;23.198;2023-07-30T05:05:12;91957.84;;;16.61;86.12
37206;BME280;23099;42.636;23.198;2023-07-30T05:07:39;91963.59;;;16.71;86.00
37206;BME280;23099;42.636;23.198;2023-07-30T05:10:06;91955.44;;;16.74;85.54
37206;BME280;23099;42.636;23.198;2023-07-30T05:12:36;91956.94;;;16.82;84.92
37206;BME280;23099;42.636;23.198;2023-07-30T05:15:03;91948.44;;;16.84;84.54
37206;BME280;23099;42.636;23.198;2023-07-30T05:17:30;91955.22;;;16.99;84.27
37206;BME280;23099;42.636;23.198;2023-07-30T05:19:58;91958.63;;;17.03;84.24
37206;BME280;23099;42.636;23.198;2023-07-30T05:22:25;91952.38;;;17.13;84.20
37206;BME280;23099;42.636;23.198;2023-07-30T05:24:52;91944.94;;;17.24;84.39
37206;BME280;23099;42.636;23.198;2023-07-30T05:27:18;91952.91;;;17.35;84.11
37206;BME280;23099;42.636;23.198;2023-07-30T05:29:45;91955.53;;;17.42;83.47
37206;BME280;23099;42.636;23.198;2023-07-30T05:32:12;91952.72;;;17.53;82.98
37206;BME280;23099;42.636;23.198;2023-07-30T05:34:39;91947.56;;;17.62;82.57
37206;BME280;23099;42.636;23.198;2023-07-30T05:37:07;91950.59;;;17.71;82.67
37206;BME280;23099;42.636;23.198;2023-07-30T05:39:33;91957.03;;;17.81;81.94
37206;BME280;23099;42.636;23.198;2023-07-30T05:42:00;91957.28;;;17.90;81.82
37206;BME280;23099;42.636;23.198;2023-07-30T05:44:27;91954.47;;;18.00;81.00
37206;BME280;23099;42.636;23.198;2023-07-30T05:46:53;91959.00;;;18.07;80.50
37206;BME280;23099;42.636;23.198;2023-07-30T05:49:20;91964.28;;;18.18;79.80
37206;BME280;23099;42.636;23.198;2023-07-30T05:51:47;91959.50;;;18.25;79.24
37206;BME280;23099;42.636;23.198;2023-07-30T05:54:15;91961.28;;;18.35;78.49
37206;BME280;23099;42.636;23.198;2023-07-30T05:56:41;91960.78;;;18.44;78.51
37206;BME280;23099;42.636;23.198;2023-07-30T05:59:08;91960.25;;;18.53;77.95
37206;BME280;23099;42.636;23.198;2023-07-30T06:01:35;91960.19;;;18.60;77.39
37206;BME280;23099;42.636;23.198;2023-07-30T06:04:01;91960.78;;;18.71;75.86
37206;BME280;23099;42.636;23.198;2023-07-30T06:06:28;91957.91;;;18.82;74.38
37206;BME280;23099;42.636;23.198;2023-07-30T06:08:55;91962.31;;;18.95;74.30
37206;BME280;23099;42.636;23.198;2023-07-30T06:11:24;91965.22;;;19.04;74.43
37206;BME280;23099;42.636;23.198;2023-07-30T06:13:51;91964.66;;;19.17;73.38
37206;BME280;23099;42.636;23.198;2023-07-30T06:16:18;91976.13;;;19.24;73.54
37206;BME280;23099;42.636;23.198;2023-07-30T06:18:45;91968.28;;;19.30;74.81
37206;BME280;23099;42.636;23.198;2023-07-30T06:21:12;91974.06;;;19.32;75.04
37206;BME280;23099;42.636;23.198;2023-07-30T06:23:38;91968.50;;;19.39;75.61
37206;BME280;23099;42.636;23.198;2023-07-30T06:26:05;91971.09;;;19.46;75.31
37206;BME280;23099;42.636;23.198;2023-07-30T06:28:33;91966.31;;;19.54;75.31
37206;BME280;23099;42.636;23.198;2023-07-30T06:31:00;91971.94;;;19.63;75.48
37206;BME280;23099;42.636;23.198;2023-07-30T06:33:27;91963.25;;;19.71;75.67
37206;BME280;23099;42.636;23.198;2023-07-30T06:35:54;91958.78;;;19.81;75.56
37206;BME280;23099;42.636;23.198;2023-07-30T06:38:21;91954.34;;;19.91;75.37
37206;BME280;23099;42.636;23.198;2023-07-30T06:40:48;91951.91;;;19.96;75.63
37206;BME280;23099;42.636;23.198;2023-07-30T06:43:15;91951.75;;;20.03;76.28
37206;BME280;23099;42.636;23.198;2023-07-30T06:45:43;91950.41;;;20.11;76.60
37206;BME280;23099;42.636;23.198;2023-07-30T06:48:09;91949.09;;;20.20;76.89
37206;BME280;23099;42.636;23.198;2023-07-30T06:50:36;91944.59;;;20.29;76.67
37206;BME280;23099;42.636;23.198;2023-07-30T06:53:03;91941.66;;;20.40;76.36
37206;BME280;23099;42.636;23.198;2023-07-30T06:55:30;91943.03;;;20.48;77.10
37206;BME280;23099;42.636;23.198;2023-07-30T06:57:56;91943.63;;;20.56;77.45
37206;BME280;23099;42.636;23.198;2023-07-30T07:00:23;91936.06;;;20.63;77.02
37206;BME280;23099;42.636;23.198;2023-07-30T07:02:51;91935.91;;;20.70;77.57
37206;BME280;23099;42.636;23.198;2023-07-30T07:05:18;91943.13;;;20.77;77.30
37206;BME280;23099;42.636;23.198;2023-07-30T07:07:45;91935.22;;;20.82;77.03
37206;BME280;23099;42.636;23.198;2023-07-30T07:10:12;91940.06;;;20.91;77.81
37206;BME280;23099;42.636;23.198;2023-07-30T07:12:39;91941.50;;;20.96;77.25
37206;BME280;23099;42.636;23.198;2023-07-30T07:15:06;91930.97;;;20.98;77.28
37206;BME280;23099;42.636;23.198;2023-07-30T07:17:33;91934.59;;;21.07;76.54
37206;BME280;23099;42.636;23.198;2023-07-30T07:20:03;91930.53;;;21.15;76.19
37206;BME280;23099;42.636;23.198;2023-07-30T07:22:30;91927.97;;;21.25;76.02
37206;BME280;23099;42.636;23.198;2023-07-30T07:24:57;91926.84;;;21.38;75.51
37206;BME280;23099;42.636;23.198;2023-07-30T07:27:23;91919.16;;;21.49;74.99
37206;BME280;23099;42.636;23.198;2023-07-30T07:29:50;91925.59;;;21.56;74.91
37206;BME280;23099;42.636;23.198;2023-07-30T07:32:17;91915.38;;;21.60;74.58
37206;BME280;23099;42.636;23.198;2023-07-30T07:34:45;91924.59;;;21.78;73.47
37206;BME280;23099;42.636;23.198;2023-07-30T07:37:14;91918.41;;;21.91;72.97
37206;BME280;23099;42.636;23.198;2023-07-30T07:39:42;91913.75;;;22.04;71.91
37206;BME280;23099;42.636;23.198;2023-07-30T07:42:08;91919.97;;;22.17;71.64
37206;BME280;23099;42.636;23.198;2023-07-30T07:44:35;91916.50;;;22.29;71.15
37206;BME280;23099;42.636;23.198;2023-07-30T07:47:02;91918.78;;;22.43;70.92
37206;BME280;23099;42.636;23.198;2023-07-30T07:49:29;91921.94;;;22.54;69.66
37206;BME280;23099;42.636;23.198;2023-07-30T07:51:56;91921.81;;;22.71;68.23
37206;BME280;23099;42.636;23.198;2023-07-30T07:54:24;91911.78;;;22.80;68.15
37206;BME280;23099;42.636;23.198;2023-07-30T07:56:50;91912.66;;;22.90;68.25
37206;BME280;23099;42.636;23.198;2023-07-30T07:59:17;91914.59;;;23.02;67.23
37206;BME280;23099;42.636;23.198;2023-07-30T08:01:44;91908.47;;;23.11;67.39
37206;BME280;23099;42.636;23.198;2023-07-30T08:04:10;91914.00;;;23.20;66.09
37206;BME280;23099;42.636;23.198;2023-07-30T08:06:37;91905.03;;;23.32;66.16
37206;BME280;23099;42.636;23.198;2023-07-30T08:09:04;91916.31;;;23.43;66.17
37206;BME280;23099;42.636;23.198;2023-07-30T08:11:32;91906.56;;;23.55;64.10
37206;BME280;23099;42.636;23.198;2023-07-30T08:13:58;91912.22;;;23.60;63.26
37206;BME280;23099;42.636;23.198;2023-07-30T08:16:25;91911.53;;;23.69;62.80
37206;BME280;23099;42.636;23.198;2023-07-30T08:18:52;91907.78;;;23.76;62.25
37206;BME280;23099;42.636;23.198;2023-07-30T08:21:20;91913.31;;;23.85;59.94
37206;BME280;23099;42.636;23.198;2023-07-30T08:23:46;91904.88;;;23.92;61.37
37206;BME280;23099;42.636;23.198;2023-07-30T08:26:13;91908.41;;;24.02;60.12
37206;BME280;23099;42.636;23.198;2023-07-30T08:28:41;91907.38;;;24.08;59.99
37206;BME280;23099;42.636;23.198;2023-07-30T08:31:08;91903.63;;;24.15;57.68
37206;BME280;23099;42.636;23.198;2023-07-30T08:33:34;91895.28;;;24.18;59.12
37206;BME280;23099;42.636;23.198;2023-07-30T08:36:01;91899.63;;;24.28;56.10
37206;BME280;23099;42.636;23.198;2023-07-30T08:38:28;91899.81;;;24.34;55.97
37206;BME280;23099;42.636;23.198;2023-07-30T08:40:55;91888.44;;;24.36;54.81
37206;BME280;23099;42.636;23.198;2023-07-30T08:43:22;91897.09;;;24.43;53.22
37206;BME280;23099;42.636;23.198;2023-07-30T08:45:50;91901.66;;;24.46;52.64
37206;BME280;23099;42.636;23.198;2023-07-30T08:48:17;91897.44;;;24.54;52.59
37206;BME280;23099;42.636;23.198;2023-07-30T08:50:44;91893.03;;;24.57;51.19
37206;BME280;23099;42.636;23.198;2023-07-30T08:53:12;91898.72;;;24.72;51.55
37206;BME280;23099;42.636;23.198;2023-07-30T08:55:40;91900.09;;;24.76;50.42
37206;BME280;23099;42.636;23.198;2023-07-30T08:58:07;91897.38;;;24.85;48.72
37206;BME280;23099;42.636;23.198;2023-07-30T09:00:37;91895.91;;;24.93;51.93
37206;BME280;23099;42.636;23.198;2023-07-30T09:03:06;91894.53;;;24.98;46.41
37206;BME280;23099;42.636;23.198;2023-07-30T09:05:33;91887.28;;;25.04;46.12
37206;BME280;23099;42.636;23.198;2023-07-30T09:08:00;91887.59;;;25.15;45.31
37206;BME280;23099;42.636;23.198;2023-07-30T09:10:27;91892.59;;;25.26;47.58
37206;BME280;23099;42.636;23.198;2023-07-30T09:12:54;91879.38;;;25.33;46.31
37206;BME280;23099;42.636;23.198;2023-07-30T09:15:30;91892.31;;;25.42;45.51
37206;BME280;23099;42.636;23.198;2023-07-30T09:17:57;91884.25;;;25.48;43.32
37206;BME280;23099;42.636;23.198;2023-07-30T09:20:26;91890.63;;;25.54;44.09
37206;BME280;23099;42.636;23.198;2023-07-30T09:22:56;91893.72;;;25.65;45.06
37206;BME280;23099;42.636;23.198;2023-07-30T09:25:22;91884.09;;;25.69;44.13
37206;BME280;23099;42.636;23.198;2023-07-30T09:27:50;91861.44;;;25.60;42.12
37206;BME280;23099;42.636;23.198;2023-07-30T09:30:21;91884.53;;;25.86;43.90
37206;BME280;23099;42.636;23.198;2023-07-30T09:32:51;91881.81;;;25.95;43.90
37206;BME280;23099;42.636;23.198;2023-07-30T09:35:17;91873.13;;;25.97;42.27
37206;BME280;23099;42.636;23.198;2023-07-30T09:37:46;91878.44;;;26.10;43.68
37206;BME280;23099;42.636;23.198;2023-07-30T09:40:13;91873.53;;;26.14;41.04
37206;BME280;23099;42.636;23.198;2023-07-30T09:42:43;91847.84;;;26.11;40.87
37206;BME280;23099;42.636;23.198;2023-07-30T09:45:17;91861.63;;;26.35;43.57
37206;BME280;23099;42.636;23.198;2023-07-30T09:47:46;91854.00;;;26.39;40.58
37206;BME280;23099;42.636;23.198;2023-07-30T09:50:13;91854.88;;;26.45;41.79
37206;BME280;23099;42.636;23.198;2023-07-30T09:52:40;91860.03;;;26.52;42.81
37206;BME280;23099;42.636;23.198;2023-07-30T09:55:09;91860.91;;;26.58;43.77
37206;BME280;23099;42.636;23.198;2023-07-30T09:57:37;91856.25;;;26.73;43.88
37206;BME280;23099;42.636;23.198;2023-07-30T10:00:05;91853.28;;;26.86;40.67
37206;BME280;23099;42.636;23.198;2023-07-30T10:02:37;91851.75;;;26.94;39.34
37206;BME280;23099;42.636;23.198;2023-07-30T10:05:08;91836.91;;;27.01;39.74
37206;BME280;23099;42.636;23.198;2023-07-30T10:07:38;91842.56;;;27.21;40.38
37206;BME280;23099;42.636;23.198;2023-07-30T10:10:09;91839.03;;;27.44;39.55
37206;BME280;23099;42.636;23.198;2023-07-30T10:12:38;91830.19;;;27.64;39.61
37206;BME280;23099;42.636;23.198;2023-07-30T10:15:07;91830.03;;;27.83;39.23
37206;BME280;23099;42.636;23.198;2023-07-30T10:17:34;91828.84;;;27.60;37.68
37206;BME280;23099;42.636;23.198;2023-07-30T10:20:23;91818.09;;;27.32;39.95
37206;BME280;23099;42.636;23.198;2023-07-30T10:22:54;91815.31;;;27.18;41.89
37206;BME280;23099;42.636;23.198;2023-07-30T10:25:27;91820.81;;;27.32;41.83
37206;BME280;23099;42.636;23.198;2023-07-30T10:27:54;91822.75;;;27.56;42.31
37206;BME280;23099;42.636;23.198;2023-07-30T10:30:21;91822.34;;;27.87;40.04
37206;BME280;23099;42.636;23.198;2023-07-30T10:33:02;91822.78;;;28.14;38.36
37206;BME280;23099;42.636;23.198;2023-07-30T10:35:39;91809.16;;;28.35;38.55
37206;BME280;23099;42.636;23.198;2023-07-30T10:38:13;91809.56;;;28.63;40.02
37206;BME280;23099;42.636;23.198;2023-07-30T10:40:41;91810.53;;;28.95;39.42
37206;BME280;23099;42.636;23.198;2023-07-30T10:43:15;91805.75;;;29.15;37.40
37206;BME280;23099;42.636;23.198;2023-07-30T10:45:48;91802.44;;;29.32;37.48
37206;BME280;23099;42.636;23.198;2023-07-30T10:48:15;91798.94;;;29.51;35.41
37206;BME280;23099;42.636;23.198;2023-07-30T10:50:42;91794.09;;;29.67;37.65
37206;BME280;23099;42.636;23.198;2023-07-30T10:53:14;91792.03;;;29.87;36.00
37206;BME280;23099;42.636;23.198;2023-07-30T10:55:42;91784.47;;;30.08;37.28
37206;BME280;23099;42.636;23.198;2023-07-30T10:58:09;91782.41;;;30.35;32.42
37206;BME280;23099;42.636;23.198;2023-07-30T11:00:37;91779.88;;;30.63;34.73
37206;BME280;23099;42.636;23.198;2023-07-30T11:03:04;91778.81;;;30.97;33.39
37206;BME280;23099;42.636;23.198;2023-07-30T11:05:30;91779.00;;;31.31;30.25
37206;BME280;23099;42.636;23.198;2023-07-30T11:07:57;91776.00;;;31.51;30.53
37206;BME280;23099;42.636;23.198;2023-07-30T11:10:24;91775.28;;;31.61;30.04
37206;BME280;23099;42.636;23.198;2023-07-30T11:12:52;91777.09;;;31.65;28.81
37206;BME280;23099;42.636;23.198;2023-07-30T11:15:18;91762.72;;;31.60;27.82
37206;BME280;23099;42.636;23.198;2023-07-30T11:17:45;91763.03;;;31.68;28.98
37206;BME280;23099;42.636;23.198;2023-07-30T11:20:22;91754.25;;;31.86;29.60
37206;BME280;23099;42.636;23.198;2023-07-30T11:22:49;91756.28;;;31.97;27.52
37206;BME280;23099;42.636;23.198;2023-07-30T11:25:16;91748.25;;;31.99;27.85
37206;BME280;23099;42.636;23.198;2023-07-30T11:27:46;91755.53;;;32.19;27.16
37206;BME280;23099;42.636;23.198;2023-07-30T11:30:14;91756.81;;;32.23;27.27
37206;BME280;23099;42.636;23.198;2023-07-30T11:32:41;91753.25;;;32.12;27.28
37206;BME280;23099;42.636;23.198;2023-07-30T11:35:10;91747.50;;;32.15;27.52
37206;BME280;23099;42.636;23.198;2023-07-30T11:37:38;91751.75;;;32.39;28.36
37206;BME280;23099;42.636;23.198;2023-07-30T11:40:06;91749.97;;;32.58;26.78
37206;BME280;23099;42.636;23.198;2023-07-30T11:42:33;91745.94;;;32.70;28.89
37206;BME280;23099;42.636;23.198;2023-07-30T11:45:19;91742.41;;;32.86;26.40
37206;BME280;23099;42.636;23.198;2023-07-30T11:47:47;91741.66;;;32.63;25.26
37206;BME280;23099;42.636;23.198;2023-07-30T11:50:14;91735.66;;;32.43;26.85
37206;BME280;23099;42.636;23.198;2023-07-30T11:52:54;91731.13;;;31.95;28.22
37206;BME280;23099;42.636;23.198;2023-07-30T11:55:21;91730.06;;;31.53;29.18
37206;BME280;23099;42.636;23.198;2023-07-30T11:57:49;91726.75;;;31.27;29.71
37206;BME280;23099;42.636;23.198;2023-07-30T12:00:16;91722.19;;;31.18;30.59
37206;BME280;23099;42.636;23.198;2023-07-30T12:02:48;91724.56;;;30.88;30.88
37206;BME280;23099;42.636;23.198;2023-07-30T12:05:16;91722.47;;;30.67;31.52
37206;BME280;23099;42.636;23.198;2023-07-30T12:07:47;91721.31;;;30.42;32.30
37206;BME280;23099;42.636;23.198;2023-07-30T12:10:14;91714.56;;;30.43;33.27
37206;BME280;23099;42.636;23.198;2023-07-30T12:12:43;91708.00;;;30.40;32.94
37206;BME280;23099;42.636;23.198;2023-07-30T12:15:11;91701.25;;;30.47;32.21
37206;BME280;23099;42.636;23.198;2023-07-30T12:17:38;91700.63;;;30.57;33.12
37206;BME280;23099;42.636;23.198;2023-07-30T12:20:07;91704.44;;;30.71;30.63
37206;BME280;23099;42.636;23.198;2023-07-30T12:22:34;91690.97;;;30.96;30.30
37206;BME280;23099;42.636;23.198;2023-07-30T12:25:02;91682.81;;;31.23;31.64
37206;BME280;23099;42.636;23.198;2023-07-30T12:27:30;91684.13;;;31.45;31.58
37206;BME280;23099;42.636;23.198;2023-07-30T12:29:56;91691.13;;;31.51;30.41
37206;BME280;23099;42.636;23.198;2023-07-30T12:32:23;91690.34;;;31.34;29.43
37206;BME280;23099;42.636;23.198;2023-07-30T12:34:53;91684.56;;;31.26;28.75
37206;BME280;23099;42.636;23.198;2023-07-30T12:37:21;91677.06;;;31.38;29.81
37206;BME280;23099;42.636;23.198;2023-07-30T12:39:48;91682.59;;;31.49;30.02
37206;BME280;23099;42.636;23.198;2023-07-30T12:42:14;91674.56;;;31.62;29.95
37206;BME280;23099;42.636;23.198;2023-07-30T12:44:41;91671.03;;;31.62;28.83
37206;BME280;23099;42.636;23.198;2023-07-30T12:47:08;91669.78;;;31.35;31.10
37206;BME280;23099;42.636;23.198;2023-07-30T12:49:34;91669.69;;;31.07;30.44
37206;BME280;23099;42.636;23.198;2023-07-30T12:52:02;91662.53;;;30.67;33.10